American Eagle — WZS7556 — position and weather

sailwx.info

Track history (hours):
 
Tides and Currents Weather Stations Pressure Air Temp Water Temp Dewpoint Dewpoint Depression Visibility Wind Speed Wind Dir Waves Ship Positions

American Eagle

Owner: Oscar Niemeth Towing, Inc., OAKLAND, CA. More information available from US FCC via Universal Licensing System and Coast Guard Vessel Documentation Center.

Last reported at 2018-Apr-10 03:01 UTC. Time now 2018-Jun-22 20:29 UTC.
Position N 37°55' W 122°22'.
Warning: this ship's position is months out of date.

Length 27 m.

MMSI: 366962910.

Date/timePositionNaut miles runAvg speedWind from/ knotsBaromVisibWave heightAir tempDewpointWater temp
2018-Apr-10 03:01N 37°55' W 122°22'0 1.0
2018-Apr-10 03:00N 37°55' W 122°22'0 0.4
2018-Apr-10 02:30N 37°55' W 122°22'2 4.8
2018-Apr-10 02:01N 37°54' W 122°25'4 7.0
2018-Apr-10 01:30N 37°51' W 122°22'3 5.6
2018-Apr-10 01:00N 37°48' W 122°21'2 3.1
2018-Apr-10 00:30N 37°47' W 122°21'1 2.7
2018-Apr-10 00:00N 37°47' W 122°23'0 0.0
2018-Apr-09 23:30N 37°47' W 122°23'0 0.4
2018-Apr-09 23:01N 37°47' W 122°23'0 0.0
2018-Apr-09 22:30N 37°47' W 122°23'0 0.0
2018-Apr-09 22:00N 37°47' W 122°23'0 0.5
2018-Apr-09 21:30N 37°47' W 122°23'2 3.8
2018-Apr-09 21:01N 37°49' W 122°23'3 5.6
2018-Apr-09 20:31N 37°51' W 122°24'3 6.0
2018-Apr-09 20:00N 37°54' W 122°25'7 5.8
2018-Apr-09 18:52N 38°01' W 122°24'5 5.5
2018-Apr-09 17:55N 38°03' W 122°18'2 5.4
2018-Apr-09 17:29N 38°04' W 122°15'2 3.9
2018-Apr-09 16:58N 38°06' W 122°16'  
Track history (hours):
 
Tides and Currents Weather Stations Pressure Air Temp Water Temp Dewpoint Dewpoint Depression Visibility Wind Speed Wind Dir Waves Ship Positions

American Eagle

Owner: Oscar Niemeth Towing, Inc., OAKLAND, CA. More information available from US FCC via Universal Licensing System and Coast Guard Vessel Documentation Center.

Last reported at 2018-Apr-10 03:01 UTC. Time now 2018-Jun-22 20:29 UTC.
Position N 37°55' W 122°22'.
Warning: this ship's position is months out of date.

Length 27 m.

MMSI: 366962910.

Date/timePositionNaut miles runAvg speedWind from/ knotsBaromVisibWave heightAir tempDewpointWater temp
2018-Apr-10 03:01N 37°55' W 122°22'0 1.0
2018-Apr-10 03:00N 37°55' W 122°22'0 0.4
2018-Apr-10 02:30N 37°55' W 122°22'2 4.8
2018-Apr-10 02:01N 37°54' W 122°25'4 7.0
2018-Apr-10 01:30N 37°51' W 122°22'3 5.6
2018-Apr-10 01:00N 37°48' W 122°21'2 3.1
2018-Apr-10 00:30N 37°47' W 122°21'1 2.7
2018-Apr-10 00:00N 37°47' W 122°23'0 0.0
2018-Apr-09 23:30N 37°47' W 122°23'0 0.4
2018-Apr-09 23:01N 37°47' W 122°23'0 0.0
2018-Apr-09 22:30N 37°47' W 122°23'0 0.0
2018-Apr-09 22:00N 37°47' W 122°23'0 0.5
2018-Apr-09 21:30N 37°47' W 122°23'2 3.8
2018-Apr-09 21:01N 37°49' W 122°23'3 5.6
2018-Apr-09 20:31N 37°51' W 122°24'3 6.0
2018-Apr-09 20:00N 37°54' W 122°25'7 5.8
2018-Apr-09 18:52N 38°01' W 122°24'5 5.5
2018-Apr-09 17:55N 38°03' W 122°18'2 5.4
2018-Apr-09 17:29N 38°04' W 122°15'2 3.9
2018-Apr-09 16:58N 38°06' W 122°16'  

Dump ship's entire track history